sensor_id;sensor_type;location;lat;lon;timestamp;P1;durP1;ratioP1;P2;durP2;ratioP2
36725;SDS011;44936;52.086;5.150;2022-09-28T00:02:02;1.23;;;0.40;;
36725;SDS011;44936;52.086;5.150;2022-09-28T00:04:28;0.30;;;0.30;;
36725;SDS011;44936;52.086;5.150;2022-09-28T00:06:54;0.45;;;0.45;;
36725;SDS011;44936;52.086;5.150;2022-09-28T00:09:19;0.40;;;0.30;;
36725;SDS011;44936;52.086;5.150;2022-09-28T00:11:45;1.25;;;0.40;;
36725;SDS011;44936;52.086;5.150;2022-09-28T00:14:11;0.40;;;0.40;;
36725;SDS011;44936;52.086;5.150;2022-09-28T00:16:38;0.75;;;0.43;;
36725;SDS011;44936;52.086;5.150;2022-09-28T00:19:07;2.72;;;0.57;;
36725;SDS011;44936;52.086;5.150;2022-09-28T00:21:34;0.90;;;0.50;;
36725;SDS011;44936;52.086;5.150;2022-09-28T00:24:01;0.50;;;0.45;;
36725;SDS011;44936;52.086;5.150;2022-09-28T00:29:26;1.00;;;0.55;;
36725;SDS011;44936;52.086;5.150;2022-09-28T00:31:56;0.45;;;0.45;;
36725;SDS011;44936;52.086;5.150;2022-09-28T00:34:40;1.15;;;0.50;;
36725;SDS011;44936;52.086;5.150;2022-09-28T00:37:10;0.50;;;0.40;;
36725;SDS011;44936;52.086;5.150;2022-09-28T00:39:38;2.50;;;0.70;;
36725;SDS011;44936;52.086;5.150;2022-09-28T00:42:12;1.75;;;0.40;;
36725;SDS011;44936;52.086;5.150;2022-09-28T00:44:47;0.50;;;0.50;;
36725;SDS011;44936;52.086;5.150;2022-09-28T00:53:08;2.92;;;0.65;;
36725;SDS011;44936;52.086;5.150;2022-09-28T00:55:41;1.55;;;0.50;;
36725;SDS011;44936;52.086;5.150;2022-09-28T00:58:10;2.85;;;0.90;;
36725;SDS011;44936;52.086;5.150;2022-09-28T01:00:38;1.00;;;0.63;;
36725;SDS011;44936;52.086;5.150;2022-09-28T01:03:04;2.30;;;0.70;;
36725;SDS011;44936;52.086;5.150;2022-09-28T01:05:33;3.92;;;1.00;;
36725;SDS011;44936;52.086;5.150;2022-09-28T01:07:59;2.05;;;1.00;;
36725;SDS011;44936;52.086;5.150;2022-09-28T01:10:26;1.58;;;1.20;;
36725;SDS011;44936;52.086;5.150;2022-09-28T01:12:56;4.38;;;2.28;;
36725;SDS011;44936;52.086;5.150;2022-09-28T01:15:22;5.63;;;1.10;;
36725;SDS011;44936;52.086;5.150;2022-09-28T01:31:44;4.85;;;1.45;;
36725;SDS011;44936;52.086;5.150;2022-09-28T01:34:27;3.65;;;1.52;;
36725;SDS011;44936;52.086;5.150;2022-09-28T01:37:02;1.60;;;1.25;;
36725;SDS011;44936;52.086;5.150;2022-09-28T01:39:32;3.67;;;1.52;;
36725;SDS011;44936;52.086;5.150;2022-09-28T01:42:04;2.60;;;1.40;;
36725;SDS011;44936;52.086;5.150;2022-09-28T01:44:37;3.33;;;1.48;;
36725;SDS011;44936;52.086;5.150;2022-09-28T01:47:08;3.17;;;2.05;;
36725;SDS011;44936;52.086;5.150;2022-09-28T01:49:47;1.95;;;1.40;;
36725;SDS011;44936;52.086;5.150;2022-09-28T01:58:02;2.85;;;1.10;;
36725;SDS011;44936;52.086;5.150;2022-09-28T02:00:34;2.88;;;1.00;;
36725;SDS011;44936;52.086;5.150;2022-09-28T02:05:35;1.80;;;0.98;;
36725;SDS011;44936;52.086;5.150;2022-09-28T02:08:05;1.05;;;0.80;;
36725;SDS011;44936;52.086;5.150;2022-09-28T02:10:37;1.58;;;0.80;;
36725;SDS011;44936;52.086;5.150;2022-09-28T02:13:10;4.60;;;0.93;;
36725;SDS011;44936;52.086;5.150;2022-09-28T02:15:55;1.63;;;0.80;;
36725;SDS011;44936;52.086;5.150;2022-09-28T02:18:26;0.70;;;0.60;;
36725;SDS011;44936;52.086;5.150;2022-09-28T02:20:58;0.30;;;0.30;;
36725;SDS011;44936;52.086;5.150;2022-09-28T02:23:31;0.45;;;0.40;;
36725;SDS011;44936;52.086;5.150;2022-09-28T02:26:02;0.45;;;0.40;;
36725;SDS011;44936;52.086;5.150;2022-09-28T02:28:34;0.73;;;0.35;;
36725;SDS011;44936;52.086;5.150;2022-09-28T02:31:00;0.63;;;0.38;;
36725;SDS011;44936;52.086;5.150;2022-09-28T02:33:28;0.50;;;0.32;;
36725;SDS011;44936;52.086;5.150;2022-09-28T02:35:58;0.20;;;0.20;;
36725;SDS011;44936;52.086;5.150;2022-09-28T02:38:24;0.50;;;0.50;;
36725;SDS011;44936;52.086;5.150;2022-09-28T02:41:01;0.20;;;0.20;;
36725;SDS011;44936;52.086;5.150;2022-09-28T02:51:37;1.88;;;0.20;;
36725;SDS011;44936;52.086;5.150;2022-09-28T02:59:42;0.43;;;0.10;;
36725;SDS011;44936;52.086;5.150;2022-09-28T03:02:30;0.28;;;0.20;;
36725;SDS011;44936;52.086;5.150;2022-09-28T03:05:05;1.65;;;0.20;;
36725;SDS011;44936;52.086;5.150;2022-09-28T03:12:36;1.55;;;0.20;;
36725;SDS011;44936;52.086;5.150;2022-09-28T03:15:11;0.30;;;0.30;;
36725;SDS011;44936;52.086;5.150;2022-09-28T03:17:43;1.77;;;0.20;;
36725;SDS011;44936;52.086;5.150;2022-09-28T03:20:08;0.13;;;0.13;;
36725;SDS011;44936;52.086;5.150;2022-09-28T03:22:35;1.55;;;0.10;;
36725;SDS011;44936;52.086;5.150;2022-09-28T03:25:01;0.20;;;0.20;;
36725;SDS011;44936;52.086;5.150;2022-09-28T03:27:26;0.40;;;0.20;;
36725;SDS011;44936;52.086;5.150;2022-09-28T03:29:52;0.17;;;0.17;;
36725;SDS011;44936;52.086;5.150;2022-09-28T03:32:17;0.28;;;0.28;;
36725;SDS011;44936;52.086;5.150;2022-09-28T03:34:43;0.10;;;0.10;;
36725;SDS011;44936;52.086;5.150;2022-09-28T03:37:08;0.40;;;0.20;;
36725;SDS011;44936;52.086;5.150;2022-09-28T03:39:36;0.10;;;0.10;;
36725;SDS011;44936;52.086;5.150;2022-09-28T03:42:01;0.10;;;0.10;;
36725;SDS011;44936;52.086;5.150;2022-09-28T03:44:27;2.25;;;0.20;;
36725;SDS011;44936;52.086;5.150;2022-09-28T03:46:52;2.17;;;0.20;;
36725;SDS011;44936;52.086;5.150;2022-09-28T03:49:17;0.00;;;0.00;;
36725;SDS011;44936;52.086;5.150;2022-09-28T03:51:43;0.00;;;0.00;;
36725;SDS011;44936;52.086;5.150;2022-09-28T03:54:08;0.20;;;0.15;;
36725;SDS011;44936;52.086;5.150;2022-09-28T03:56:33;0.30;;;0.10;;
36725;SDS011;44936;52.086;5.150;2022-09-28T03:59:01;0.20;;;0.05;;
36725;SDS011;44936;52.086;5.150;2022-09-28T04:01:28;1.00;;;0.10;;
36725;SDS011;44936;52.086;5.150;2022-09-28T04:03:54;0.03;;;0.03;;
36725;SDS011;44936;52.086;5.150;2022-09-28T04:06:24;0.32;;;0.32;;
36725;SDS011;44936;52.086;5.150;2022-09-28T04:08:50;0.55;;;0.17;;
36725;SDS011;44936;52.086;5.150;2022-09-28T04:11:15;0.10;;;0.10;;
36725;SDS011;44936;52.086;5.150;2022-09-28T04:13:41;0.10;;;0.10;;
36725;SDS011;44936;52.086;5.150;2022-09-28T04:16:08;0.20;;;0.20;;
36725;SDS011;44936;52.086;5.150;2022-09-28T04:18:34;0.63;;;0.10;;
36725;SDS011;44936;52.086;5.150;2022-09-28T04:21:00;0.20;;;0.20;;
36725;SDS011;44936;52.086;5.150;2022-09-28T04:23:27;0.38;;;0.10;;
36725;SDS011;44936;52.086;5.150;2022-09-28T04:25:53;0.08;;;0.08;;
36725;SDS011;44936;52.086;5.150;2022-09-28T04:28:19;0.10;;;0.10;;
36725;SDS011;44936;52.086;5.150;2022-09-28T04:31:07;0.20;;;0.20;;
36725;SDS011;44936;52.086;5.150;2022-09-28T04:33:35;0.10;;;0.10;;
36725;SDS011;44936;52.086;5.150;2022-09-28T04:36:00;0.10;;;0.10;;
36725;SDS011;44936;52.086;5.150;2022-09-28T04:38:27;0.20;;;0.10;;
36725;SDS011;44936;52.086;5.150;2022-09-28T04:40:52;0.50;;;0.20;;
36725;SDS011;44936;52.086;5.150;2022-09-28T04:43:18;0.25;;;0.00;;
36725;SDS011;44936;52.086;5.150;2022-09-28T04:45:43;0.57;;;0.57;;
36725;SDS011;44936;52.086;5.150;2022-09-28T04:48:08;1.23;;;0.20;;
36725;SDS011;44936;52.086;5.150;2022-09-28T04:50:34;1.48;;;0.20;;
36725;SDS011;44936;52.086;5.150;2022-09-28T04:52:59;0.93;;;0.10;;
36725;SDS011;44936;52.086;5.150;2022-09-28T04:55:26;0.10;;;0.10;;
36725;SDS011;44936;52.086;5.150;2022-09-28T04:57:56;0.20;;;0.20;;
36725;SDS011;44936;52.086;5.150;2022-09-28T05:00:24;0.10;;;0.10;;
36725;SDS011;44936;52.086;5.150;2022-09-28T05:02:49;1.98;;;0.30;;
36725;SDS011;44936;52.086;5.150;2022-09-28T05:05:15;0.20;;;0.20;;
36725;SDS011;44936;52.086;5.150;2022-09-28T05:07:40;0.10;;;0.10;;
36725;SDS011;44936;52.086;5.150;2022-09-28T05:10:06;0.20;;;0.20;;
36725;SDS011;44936;52.086;5.150;2022-09-28T05:12:31;0.93;;;0.30;;
36725;SDS011;44936;52.086;5.150;2022-09-28T05:14:59;0.08;;;0.08;;
36725;SDS011;44936;52.086;5.150;2022-09-28T05:17:26;1.85;;;0.22;;
36725;SDS011;44936;52.086;5.150;2022-09-28T05:19:52;3.63;;;0.68;;
36725;SDS011;44936;52.086;5.150;2022-09-28T05:22:17;0.38;;;0.20;;
36725;SDS011;44936;52.086;5.150;2022-09-28T05:24:42;0.60;;;0.30;;
36725;SDS011;44936;52.086;5.150;2022-09-28T05:27:10;0.90;;;0.30;;
36725;SDS011;44936;52.086;5.150;2022-09-28T05:29:35;1.13;;;0.20;;
36725;SDS011;44936;52.086;5.150;2022-09-28T05:32:01;1.20;;;0.43;;
36725;SDS011;44936;52.086;5.150;2022-09-28T05:34:26;0.43;;;0.40;;
36725;SDS011;44936;52.086;5.150;2022-09-28T05:36:52;0.30;;;0.30;;
36725;SDS011;44936;52.086;5.150;2022-09-28T05:39:17;0.47;;;0.30;;
36725;SDS011;44936;52.086;5.150;2022-09-28T05:41:42;0.70;;;0.17;;
36725;SDS011;44936;52.086;5.150;2022-09-28T05:44:08;0.30;;;0.30;;
36725;SDS011;44936;52.086;5.150;2022-09-28T05:46:33;0.20;;;0.20;;
36725;SDS011;44936;52.086;5.150;2022-09-28T05:48:58;0.10;;;0.10;;
36725;SDS011;44936;52.086;5.150;2022-09-28T05:51:24;0.20;;;0.20;;
36725;SDS011;44936;52.086;5.150;2022-09-28T05:53:49;0.57;;;0.57;;
36725;SDS011;44936;52.086;5.150;2022-09-28T05:56:15;2.67;;;0.40;;
36725;SDS011;44936;52.086;5.150;2022-09-28T05:58:40;0.20;;;0.20;;
36725;SDS011;44936;52.086;5.150;2022-09-28T06:01:06;0.20;;;0.20;;
36725;SDS011;44936;52.086;5.150;2022-09-28T06:03:31;0.93;;;0.40;;
36725;SDS011;44936;52.086;5.150;2022-09-28T06:05:59;0.57;;;0.57;;
36725;SDS011;44936;52.086;5.150;2022-09-28T06:08:25;1.25;;;0.35;;
36725;SDS011;44936;52.086;5.150;2022-09-28T06:10:51;0.95;;;0.50;;
36725;SDS011;44936;52.086;5.150;2022-09-28T06:13:16;1.13;;;0.57;;
36725;SDS011;44936;52.086;5.150;2022-09-28T06:15:42;0.90;;;0.30;;
36725;SDS011;44936;52.086;5.150;2022-09-28T06:18:11;2.10;;;0.30;;
36725;SDS011;44936;52.086;5.150;2022-09-28T06:20:41;5.07;;;0.52;;
36725;SDS011;44936;52.086;5.150;2022-09-28T06:23:07;2.50;;;0.47;;
36725;SDS011;44936;52.086;5.150;2022-09-28T06:25:37;0.68;;;0.30;;
36725;SDS011;44936;52.086;5.150;2022-09-28T06:28:05;0.17;;;0.17;;
36725;SDS011;44936;52.086;5.150;2022-09-28T06:30:34;0.35;;;0.20;;
36725;SDS011;44936;52.086;5.150;2022-09-28T06:33:02;1.48;;;0.40;;
36725;SDS011;44936;52.086;5.150;2022-09-28T06:35:29;0.80;;;0.30;;
36725;SDS011;44936;52.086;5.150;2022-09-28T06:37:55;1.65;;;0.25;;
36725;SDS011;44936;52.086;5.150;2022-09-28T06:40:22;1.75;;;0.40;;
36725;SDS011;44936;52.086;5.150;2022-09-28T06:45:49;1.23;;;0.40;;
36725;SDS011;44936;52.086;5.150;2022-09-28T06:48:16;1.63;;;0.40;;
36725;SDS011;44936;52.086;5.150;2022-09-28T06:50:41;2.30;;;0.30;;
36725;SDS011;44936;52.086;5.150;2022-09-28T06:53:09;2.97;;;0.45;;
36725;SDS011;44936;52.086;5.150;2022-09-28T06:55:37;1.17;;;0.70;;
36725;SDS011;44936;52.086;5.150;2022-09-28T06:58:11;0.45;;;0.30;;
36725;SDS011;44936;52.086;5.150;2022-09-28T07:00:39;0.28;;;0.20;;
36725;SDS011;44936;52.086;5.150;2022-09-28T07:03:15;2.63;;;0.40;;
36725;SDS011;44936;52.086;5.150;2022-09-28T07:05:43;0.52;;;0.50;;
36725;SDS011;44936;52.086;5.150;2022-09-28T07:08:11;4.15;;;0.40;;
36725;SDS011;44936;52.086;5.150;2022-09-28T07:10:40;0.75;;;0.60;;
36725;SDS011;44936;52.086;5.150;2022-09-28T07:13:07;2.08;;;0.40;;
36725;SDS011;44936;52.086;5.150;2022-09-28T07:15:32;2.20;;;0.50;;
36725;SDS011;44936;52.086;5.150;2022-09-28T07:18:02;1.75;;;0.40;;
36725;SDS011;44936;52.086;5.150;2022-09-28T07:20:29;0.90;;;0.40;;
36725;SDS011;44936;52.086;5.150;2022-09-28T07:22:57;1.75;;;0.50;;
36725;SDS011;44936;52.086;5.150;2022-09-28T07:25:25;1.30;;;0.40;;
36725;SDS011;44936;52.086;5.150;2022-09-28T07:27:55;0.88;;;0.30;;
36725;SDS011;44936;52.086;5.150;2022-09-28T07:30:24;0.73;;;0.43;;
36725;SDS011;44936;52.086;5.150;2022-09-28T07:32:51;1.05;;;0.43;;
36725;SDS011;44936;52.086;5.150;2022-09-28T07:35:17;0.38;;;0.38;;
36725;SDS011;44936;52.086;5.150;2022-09-28T07:37:43;1.80;;;0.45;;
36725;SDS011;44936;52.086;5.150;2022-09-28T07:40:09;0.28;;;0.28;;
36725;SDS011;44936;52.086;5.150;2022-09-28T07:42:53;0.85;;;0.50;;
36725;SDS011;44936;52.086;5.150;2022-09-28T07:45:18;0.40;;;0.30;;
36725;SDS011;44936;52.086;5.150;2022-09-28T07:47:49;0.30;;;0.30;;
36725;SDS011;44936;52.086;5.150;2022-09-28T07:50:14;2.65;;;0.50;;
36725;SDS011;44936;52.086;5.150;2022-09-28T07:52:41;0.30;;;0.30;;
36725;SDS011;44936;52.086;5.150;2022-09-28T07:55:08;0.40;;;0.35;;
36725;SDS011;44936;52.086;5.150;2022-09-28T07:57:37;3.17;;;0.45;;
36725;SDS011;44936;52.086;5.150;2022-09-28T08:00:03;1.27;;;0.47;;
36725;SDS011;44936;52.086;5.150;2022-09-28T08:02:33;0.68;;;0.30;;
36725;SDS011;44936;52.086;5.150;2022-09-28T08:07:33;1.05;;;0.50;;
36725;SDS011;44936;52.086;5.150;2022-09-28T08:10:02;0.35;;;0.35;;
36725;SDS011;44936;52.086;5.150;2022-09-28T08:12:28;0.20;;;0.20;;
36725;SDS011;44936;52.086;5.150;2022-09-28T08:14:53;5.47;;;0.32;;
36725;SDS011;44936;52.086;5.150;2022-09-28T08:17:19;2.53;;;0.40;;
36725;SDS011;44936;52.086;5.150;2022-09-28T08:19:46;0.20;;;0.20;;
36725;SDS011;44936;52.086;5.150;2022-09-28T08:22:31;1.90;;;0.38;;
36725;SDS011;44936;52.086;5.150;2022-09-28T08:24:56;1.20;;;0.55;;
36725;SDS011;44936;52.086;5.150;2022-09-28T08:27:22;0.20;;;0.20;;
36725;SDS011;44936;52.086;5.150;2022-09-28T08:29:47;0.35;;;0.20;;
36725;SDS011;44936;52.086;5.150;2022-09-28T08:32:13;0.45;;;0.20;;
36725;SDS011;44936;52.086;5.150;2022-09-28T08:34:41;0.93;;;0.30;;
36725;SDS011;44936;52.086;5.150;2022-09-28T08:37:07;0.20;;;0.20;;
36725;SDS011;44936;52.086;5.150;2022-09-28T08:39:33;3.38;;;0.20;;
36725;SDS011;44936;52.086;5.150;2022-09-28T08:45:09;0.30;;;0.20;;
36725;SDS011;44936;52.086;5.150;2022-09-28T08:50:53;0.38;;;0.30;;
36725;SDS011;44936;52.086;5.150;2022-09-28T08:53:51;0.30;;;0.20;;
36725;SDS011;44936;52.086;5.150;2022-09-28T08:56:42;0.73;;;0.30;;
36725;SDS011;44936;52.086;5.150;2022-09-28T08:59:23;0.20;;;0.20;;
36725;SDS011;44936;52.086;5.150;2022-09-28T09:02:01;2.17;;;0.35;;
36725;SDS011;44936;52.086;5.150;2022-09-28T09:04:29;0.50;;;0.20;;
36725;SDS011;44936;52.086;5.150;2022-09-28T09:21:13;0.20;;;0.20;;
36725;SDS011;44936;52.086;5.150;2022-09-28T09:23:53;2.90;;;0.30;;
36725;SDS011;44936;52.086;5.150;2022-09-28T09:26:26;0.80;;;0.20;;
36725;SDS011;44936;52.086;5.150;2022-09-28T09:29:15;1.35;;;0.20;;
36725;SDS011;44936;52.086;5.150;2022-09-28T09:45:40;1.35;;;0.20;;
36725;SDS011;44936;52.086;5.150;2022-09-28T09:48:20;2.40;;;0.38;;
36725;SDS011;44936;52.086;5.150;2022-09-28T09:50:56;0.63;;;0.15;;
36725;SDS011;44936;52.086;5.150;2022-09-28T09:53:43;0.85;;;0.38;;
36725;SDS011;44936;52.086;5.150;2022-09-28T09:56:15;0.30;;;0.10;;
36725;SDS011;44936;52.086;5.150;2022-09-28T09:58:50;0.20;;;0.20;;
36725;SDS011;44936;52.086;5.150;2022-09-28T10:01:54;0.10;;;0.10;;
36725;SDS011;44936;52.086;5.150;2022-09-28T10:04:18;0.20;;;0.20;;
36725;SDS011;44936;52.086;5.150;2022-09-28T10:06:57;0.50;;;0.15;;
36725;SDS011;44936;52.086;5.150;2022-09-28T10:09:41;0.20;;;0.20;;
36725;SDS011;44936;52.086;5.150;2022-09-28T10:12:11;0.20;;;0.20;;
36725;SDS011;44936;52.086;5.150;2022-09-28T10:14:43;0.32;;;0.20;;
36725;SDS011;44936;52.086;5.150;2022-09-28T10:17:09;0.57;;;0.20;;
36725;SDS011;44936;52.086;5.150;2022-09-28T10:19:40;0.43;;;0.20;;
36725;SDS011;44936;52.086;5.150;2022-09-28T10:22:09;0.52;;;0.10;;
36725;SDS011;44936;52.086;5.150;2022-09-28T10:24:42;0.50;;;0.20;;
36725;SDS011;44936;52.086;5.150;2022-09-28T10:27:13;0.17;;;0.17;;
36725;SDS011;44936;52.086;5.150;2022-09-28T10:29:51;0.10;;;0.10;;
36725;SDS011;44936;52.086;5.150;2022-09-28T10:32:25;0.63;;;0.57;;
36725;SDS011;44936;52.086;5.150;2022-09-28T10:34:52;3.33;;;0.32;;
36725;SDS011;44936;52.086;5.150;2022-09-28T10:37:45;1.60;;;0.20;;
36725;SDS011;44936;52.086;5.150;2022-09-28T10:40:38;1.13;;;0.20;;
36725;SDS011;44936;52.086;5.150;2022-09-28T10:43:22;0.05;;;0.05;;
36725;SDS011;44936;52.086;5.150;2022-09-28T10:45:58;0.15;;;0.15;;
36725;SDS011;44936;52.086;5.150;2022-09-28T10:48:48;0.80;;;0.10;;
36725;SDS011;44936;52.086;5.150;2022-09-28T10:51:17;0.28;;;0.10;;
36725;SDS011;44936;52.086;5.150;2022-09-28T10:54:04;0.20;;;0.20;;
36725;SDS011;44936;52.086;5.150;2022-09-28T10:56:34;0.10;;;0.10;;
36725;SDS011;44936;52.086;5.150;2022-09-28T10:59:01;0.20;;;0.20;;
36725;SDS011;44936;52.086;5.150;2022-09-28T11:01:30;0.20;;;0.10;;
36725;SDS011;44936;52.086;5.150;2022-09-28T11:03:58;0.20;;;0.20;;
36725;SDS011;44936;52.086;5.150;2022-09-28T11:06:27;1.17;;;0.20;;
36725;SDS011;44936;52.086;5.150;2022-09-28T11:08:55;0.20;;;0.20;;
36725;SDS011;44936;52.086;5.150;2022-09-28T11:11:29;0.10;;;0.10;;
36725;SDS011;44936;52.086;5.150;2022-09-28T11:14:04;0.10;;;0.10;;
36725;SDS011;44936;52.086;5.150;2022-09-28T11:16:41;0.10;;;0.10;;
36725;SDS011;44936;52.086;5.150;2022-09-28T11:19:26;0.10;;;0.10;;
36725;SDS011;44936;52.086;5.150;2022-09-28T11:21:53;0.65;;;0.65;;
36725;SDS011;44936;52.086;5.150;2022-09-28T11:24:22;1.63;;;0.15;;
36725;SDS011;44936;52.086;5.150;2022-09-28T11:26:50;0.00;;;0.00;;
36725;SDS011;44936;52.086;5.150;2022-09-28T11:29:18;0.40;;;0.25;;
36725;SDS011;44936;52.086;5.150;2022-09-28T11:31:50;1.40;;;0.10;;
36725;SDS011;44936;52.086;5.150;2022-09-28T11:34:23;0.25;;;0.20;;
36725;SDS011;44936;52.086;5.150;2022-09-28T11:37:05;0.13;;;0.13;;
36725;SDS011;44936;52.086;5.150;2022-09-28T11:39:47;0.20;;;0.20;;
36725;SDS011;44936;52.086;5.150;2022-09-28T11:42:23;1.77;;;0.40;;
36725;SDS011;44936;52.086;5.150;2022-09-28T11:48:01;2.95;;;0.30;;
36725;SDS011;44936;52.086;5.150;2022-09-28T11:58:33;1.38;;;0.20;;
36725;SDS011;44936;52.086;5.150;2022-09-28T12:01:28;0.60;;;0.13;;
36725;SDS011;44936;52.086;5.150;2022-09-28T12:06:58;0.20;;;0.20;;
36725;SDS011;44936;52.086;5.150;2022-09-28T12:09:34;0.10;;;0.10;;
36725;SDS011;44936;52.086;5.150;2022-09-28T12:12:36;0.10;;;0.10;;
36725;SDS011;44936;52.086;5.150;2022-09-28T12:17:44;0.10;;;0.10;;
36725;SDS011;44936;52.086;5.150;2022-09-28T12:20:18;0.20;;;0.20;;
36725;SDS011;44936;52.086;5.150;2022-09-28T12:22:52;1.10;;;0.20;;
36725;SDS011;44936;52.086;5.150;2022-09-28T12:25:24;0.08;;;0.08;;
36725;SDS011;44936;52.086;5.150;2022-09-28T12:28:00;0.47;;;0.20;;
36725;SDS011;44936;52.086;5.150;2022-09-28T12:30:31;1.65;;;0.17;;
36725;SDS011;44936;52.086;5.150;2022-09-28T12:33:05;0.70;;;0.20;;
36725;SDS011;44936;52.086;5.150;2022-09-28T12:35:43;0.75;;;0.30;;
36725;SDS011;44936;52.086;5.150;2022-09-28T12:38:54;0.20;;;0.20;;
36725;SDS011;44936;52.086;5.150;2022-09-28T12:44:52;0.30;;;0.25;;
36725;SDS011;44936;52.086;5.150;2022-09-28T13:01:59;0.45;;;0.20;;
36725;SDS011;44936;52.086;5.150;2022-09-28T13:15:20;0.90;;;0.75;;
36725;SDS011;44936;52.086;5.150;2022-09-28T13:23:18;0.60;;;0.10;;
36725;SDS011;44936;52.086;5.150;2022-09-28T13:25:51;0.20;;;0.20;;
36725;SDS011;44936;52.086;5.150;2022-09-28T13:28:21;0.22;;;0.22;;
36725;SDS011;44936;52.086;5.150;2022-09-28T13:30:50;2.10;;;0.30;;
36725;SDS011;44936;52.086;5.150;2022-09-28T13:33:19;2.28;;;0.38;;
36725;SDS011;44936;52.086;5.150;2022-09-28T13:36:01;0.20;;;0.20;;
36725;SDS011;44936;52.086;5.150;2022-09-28T13:38:43;0.32;;;0.32;;
36725;SDS011;44936;52.086;5.150;2022-09-28T13:41:13;0.95;;;0.30;;
36725;SDS011;44936;52.086;5.150;2022-09-28T13:43:50;0.95;;;0.20;;
36725;SDS011;44936;52.086;5.150;2022-09-28T13:49:54;0.17;;;0.10;;
36725;SDS011;44936;52.086;5.150;2022-09-28T13:55:21;0.10;;;0.10;;
36725;SDS011;44936;52.086;5.150;2022-09-28T13:57:54;0.28;;;0.28;;
36725;SDS011;44936;52.086;5.150;2022-09-28T14:16:35;0.20;;;0.10;;
36725;SDS011;44936;52.086;5.150;2022-09-28T14:19:11;0.20;;;0.20;;
36725;SDS011;44936;52.086;5.150;2022-09-28T14:24:43;0.28;;;0.13;;
36725;SDS011;44936;52.086;5.150;2022-09-28T14:27:26;1.88;;;0.17;;
36725;SDS011;44936;52.086;5.150;2022-09-28T14:30:04;0.30;;;0.10;;
36725;SDS011;44936;52.086;5.150;2022-09-28T14:32:36;0.10;;;0.10;;
36725;SDS011;44936;52.086;5.150;2022-09-28T14:35:05;0.20;;;0.17;;
36725;SDS011;44936;52.086;5.150;2022-09-28T14:37:40;0.22;;;0.22;;
36725;SDS011;44936;52.086;5.150;2022-09-28T14:40:26;0.10;;;0.10;;
36725;SDS011;44936;52.086;5.150;2022-09-28T14:54:02;0.80;;;0.10;;
36725;SDS011;44936;52.086;5.150;2022-09-28T14:56:37;0.20;;;0.20;;
36725;SDS011;44936;52.086;5.150;2022-09-28T14:59:11;0.65;;;0.20;;
36725;SDS011;44936;52.086;5.150;2022-09-28T15:01:49;0.10;;;0.10;;
36725;SDS011;44936;52.086;5.150;2022-09-28T15:04:21;0.17;;;0.17;;
36725;SDS011;44936;52.086;5.150;2022-09-28T15:06:51;0.10;;;0.10;;
36725;SDS011;44936;52.086;5.150;2022-09-28T15:11:59;0.10;;;0.10;;
36725;SDS011;44936;52.086;5.150;2022-09-28T15:14:26;0.30;;;0.30;;
36725;SDS011;44936;52.086;5.150;2022-09-28T15:20:34;0.20;;;0.20;;
36725;SDS011;44936;52.086;5.150;2022-09-28T15:23:02;0.20;;;0.10;;
36725;SDS011;44936;52.086;5.150;2022-09-28T15:25:29;0.00;;;0.00;;
36725;SDS011;44936;52.086;5.150;2022-09-28T15:27:57;0.20;;;0.00;;
36725;SDS011;44936;52.086;5.150;2022-09-28T15:30:29;0.00;;;0.00;;
36725;SDS011;44936;52.086;5.150;2022-09-28T15:32:57;1.13;;;0.13;;
36725;SDS011;44936;52.086;5.150;2022-09-28T15:35:52;0.00;;;0.00;;
36725;SDS011;44936;52.086;5.150;2022-09-28T15:38:20;0.10;;;0.10;;
36725;SDS011;44936;52.086;5.150;2022-09-28T15:40:46;0.20;;;0.13;;
36725;SDS011;44936;52.086;5.150;2022-09-28T15:43:25;0.95;;;0.20;;
36725;SDS011;44936;52.086;5.150;2022-09-28T15:45:55;0.20;;;0.10;;
36725;SDS011;44936;52.086;5.150;2022-09-28T15:48:29;0.20;;;0.10;;
36725;SDS011;44936;52.086;5.150;2022-09-28T15:51:05;0.15;;;0.15;;
36725;SDS011;44936;52.086;5.150;2022-09-28T15:53:51;0.10;;;0.10;;
36725;SDS011;44936;52.086;5.150;2022-09-28T15:56:24;0.50;;;0.20;;
36725;SDS011;44936;52.086;5.150;2022-09-28T16:04:48;0.25;;;0.20;;
36725;SDS011;44936;52.086;5.150;2022-09-28T16:07:34;0.20;;;0.20;;
36725;SDS011;44936;52.086;5.150;2022-09-28T16:12:52;0.30;;;0.30;;
36725;SDS011;44936;52.086;5.150;2022-09-28T16:15:24;0.90;;;0.30;;
36725;SDS011;44936;52.086;5.150;2022-09-28T16:17:54;0.40;;;0.20;;
36725;SDS011;44936;52.086;5.150;2022-09-28T16:20:28;0.65;;;0.30;;
36725;SDS011;44936;52.086;5.150;2022-09-28T16:22:59;1.65;;;0.50;;
36725;SDS011;44936;52.086;5.150;2022-09-28T16:25:46;0.63;;;0.28;;
36725;SDS011;44936;52.086;5.150;2022-09-28T16:31:04;0.88;;;0.40;;
36725;SDS011;44936;52.086;5.150;2022-09-28T16:36:18;2.17;;;0.50;;
36725;SDS011;44936;52.086;5.150;2022-09-28T16:38:47;1.52;;;0.52;;
36725;SDS011;44936;52.086;5.150;2022-09-28T16:41:13;2.47;;;0.60;;
36725;SDS011;44936;52.086;5.150;2022-09-28T16:43:43;0.90;;;0.40;;
36725;SDS011;44936;52.086;5.150;2022-09-28T16:46:10;1.60;;;0.50;;
36725;SDS011;44936;52.086;5.150;2022-09-28T16:48:44;3.67;;;0.60;;
36725;SDS011;44936;52.086;5.150;2022-09-28T16:51:18;0.60;;;0.30;;
36725;SDS011;44936;52.086;5.150;2022-09-28T16:53:45;1.20;;;0.30;;
36725;SDS011;44936;52.086;5.150;2022-09-28T16:56:33;1.25;;;0.40;;
36725;SDS011;44936;52.086;5.150;2022-09-28T16:59:00;0.40;;;0.30;;
36725;SDS011;44936;52.086;5.150;2022-09-28T17:01:26;0.73;;;0.30;;
36725;SDS011;44936;52.086;5.150;2022-09-28T17:03:53;0.85;;;0.40;;
36725;SDS011;44936;52.086;5.150;2022-09-28T17:06:19;0.85;;;0.40;;
36725;SDS011;44936;52.086;5.150;2022-09-28T17:08:48;1.40;;;0.35;;
36725;SDS011;44936;52.086;5.150;2022-09-28T17:11:15;0.30;;;0.30;;
36725;SDS011;44936;52.086;5.150;2022-09-28T17:13:42;1.70;;;0.50;;
36725;SDS011;44936;52.086;5.150;2022-09-28T17:16:13;0.80;;;0.40;;
36725;SDS011;44936;52.086;5.150;2022-09-28T17:18:43;0.20;;;0.20;;
36725;SDS011;44936;52.086;5.150;2022-09-28T17:21:10;0.40;;;0.28;;
36725;SDS011;44936;52.086;5.150;2022-09-28T17:23:40;2.88;;;0.40;;
36725;SDS011;44936;52.086;5.150;2022-09-28T17:26:06;0.38;;;0.38;;
36725;SDS011;44936;52.086;5.150;2022-09-28T17:28:35;1.77;;;0.47;;
36725;SDS011;44936;52.086;5.150;2022-09-28T17:31:01;0.85;;;0.47;;
36725;SDS011;44936;52.086;5.150;2022-09-28T17:33:30;0.65;;;0.60;;
36725;SDS011;44936;52.086;5.150;2022-09-28T17:35:59;0.30;;;0.30;;
36725;SDS011;44936;52.086;5.150;2022-09-28T17:38:26;2.35;;;0.60;;
36725;SDS011;44936;52.086;5.150;2022-09-28T17:40:52;2.78;;;0.40;;
36725;SDS011;44936;52.086;5.150;2022-09-28T17:43:17;3.17;;;0.65;;
36725;SDS011;44936;52.086;5.150;2022-09-28T17:45:45;1.70;;;0.52;;
36725;SDS011;44936;52.086;5.150;2022-09-28T17:48:12;0.85;;;0.45;;
36725;SDS011;44936;52.086;5.150;2022-09-28T17:50:41;1.20;;;0.40;;
36725;SDS011;44936;52.086;5.150;2022-09-28T17:53:08;0.93;;;0.40;;
36725;SDS011;44936;52.086;5.150;2022-09-28T17:55:35;1.10;;;0.68;;
36725;SDS011;44936;52.086;5.150;2022-09-28T17:58:10;0.43;;;0.43;;
36725;SDS011;44936;52.086;5.150;2022-09-28T18:00:40;0.93;;;0.20;;
36725;SDS011;44936;52.086;5.150;2022-09-28T18:03:19;0.90;;;0.40;;
36725;SDS011;44936;52.086;5.150;2022-09-28T18:08:48;2.70;;;0.50;;
36725;SDS011;44936;52.086;5.150;2022-09-28T18:11:14;2.33;;;0.43;;
36725;SDS011;44936;52.086;5.150;2022-09-28T18:13:41;0.55;;;0.50;;
36725;SDS011;44936;52.086;5.150;2022-09-28T18:16:07;1.33;;;0.47;;
36725;SDS011;44936;52.086;5.150;2022-09-28T18:18:33;1.85;;;0.60;;
36725;SDS011;44936;52.086;5.150;2022-09-28T18:21:03;1.50;;;0.70;;
36725;SDS011;44936;52.086;5.150;2022-09-28T18:23:35;3.25;;;0.70;;
36725;SDS011;44936;52.086;5.150;2022-09-28T18:26:01;3.42;;;0.90;;
36725;SDS011;44936;52.086;5.150;2022-09-28T18:28:27;1.50;;;0.68;;
36725;SDS011;44936;52.086;5.150;2022-09-28T18:30:56;0.75;;;0.70;;